Wellsburg, North Dakota
Current Conditions -  °F | °C
As of 7:55 PM on Monday 24 Nov 2014 (Local Time) from K5H4 Reporting Station
Few Clouds Few Clouds  
Wind Chill:   Ceiling: Unl
Heat Index: 14°   Visibility: 10mi
Dew Point:   Wind: 7mph
Humidity: 73%   Direction: 250°WSW
Pressure: 29.96"   Gusts: NA
Location:  47.7822°N, 99.8441°W
Report Text: K5H4 250155Z AUTO 25006KT 10SM FEW060 M10/M14 A2996 RMK AO2
Loading
Personal Weather Stations






























Interactive Weather Map New forecast layout! Learn more

10-Day Weather Forecast

Advertisements
Track Severe Weather on mobile